地図

経路データ

SID SEASON NUMBER BASIN SUBBASIN NAME ISO_TIME NATURE LAT LON WMO_WIND WMO_PRES WMO_AGENCY TRACK_TYPE DIST2LAND LANDFALL IFLAG USA_AGENCY USA_ATCF_ID USA_LAT USA_LON USA_RECORD USA_STATUS USA_WIND USA_PRES USA_SSHS USA_R34_NE USA_R34_SE USA_R34_SW USA_R34_NW USA_R50_NE USA_R50_SE USA_R50_SW USA_R50_NW USA_R64_NE USA_R64_SE USA_R64_SW USA_R64_NW USA_POCI USA_ROCI USA_RMW USA_EYE TOKYO_LAT TOKYO_LON TOKYO_GRADE TOKYO_WIND TOKYO_PRES TOKYO_R50_DIR TOKYO_R50_LONG TOKYO_R50_SHORT TOKYO_R30_DIR TOKYO_R30_LONG TOKYO_R30_SHORT TOKYO_LAND CMA_LAT CMA_LON CMA_CAT CMA_WIND CMA_PRES HKO_LAT HKO_LON HKO_CAT HKO_WIND HKO_PRES NEWDELHI_LAT NEWDELHI_LON NEWDELHI_GRADE NEWDELHI_WIND NEWDELHI_PRES NEWDELHI_CI NEWDELHI_DP NEWDELHI_POCI REUNION_LAT REUNION_LON REUNION_TYPE REUNION_WIND REUNION_PRES REUNION_TNUM REUNION_CI REUNION_RMW REUNION_R34_NE REUNION_R34_SE REUNION_R34_SW REUNION_R34_NW REUNION_R50_NE REUNION_R50_SE REUNION_R50_SW REUNION_R50_NW REUNION_R64_NE REUNION_R64_SE REUNION_R64_SW REUNION_R64_NW BOM_LAT BOM_LON BOM_TYPE BOM_WIND BOM_PRES BOM_TNUM BOM_CI BOM_RMW BOM_R34_NE BOM_R34_SE BOM_R34_SW BOM_R34_NW BOM_R50_NE BOM_R50_SE BOM_R50_SW BOM_R50_NW BOM_R64_NE BOM_R64_SE BOM_R64_SW BOM_R64_NW BOM_ROCI BOM_POCI BOM_EYE BOM_POS_METHOD BOM_PRES_METHOD NADI_LAT NADI_LON NADI_CAT NADI_WIND NADI_PRES WELLINGTON_LAT WELLINGTON_LON WELLINGTON_WIND WELLINGTON_PRES DS824_LAT DS824_LON DS824_STAGE DS824_WIND DS824_PRES TD9636_LAT TD9636_LON TD9636_STAGE TD9636_WIND TD9636_PRES TD9635_LAT TD9635_LON TD9635_WIND TD9635_PRES TD9635_ROCI NEUMANN_LAT NEUMANN_LON NEUMANN_CLASS NEUMANN_WIND NEUMANN_PRES MLC_LAT MLC_LON MLC_CLASS MLC_WIND MLC_PRES USA_GUST BOM_GUST BOM_GUST_PER REUNION_GUST REUNION_GUST_PER USA_SEAHGT USA_SEARAD_NE USA_SEARAD_SE USA_SEARAD_SW USA_SEARAD_NW STORM_SPEED STORM_DIR
1995241N11333 1995 57 NA NA LUIS 1995-08-28 18:00:00 TS 11.4000 -27.5000 30 1008 hurdat_atl main 1144 1144 O_____________ hurdat_atl AL131995 11.4000 -27.5000 TD 30 1008 -1 15 278
1995241N11333 1995 57 NA NA LUIS 1995-08-28 21:00:00 TS 11.5054 -28.2474 main 1213 1213 P_____________ AL131995 11.5054 -28.2474 TD 32 1006 -1 15 278
1995241N11333 1995 57 NA NA LUIS 1995-08-29 00:00:00 TS 11.6000 -29.0000 35 1005 hurdat_atl main 1293 1293 O_____________ hurdat_atl AL131995 11.6000 -29.0000 TS 35 1005 0 15 277
1995241N11333 1995 57 NA NA LUIS 1995-08-29 03:00:00 TS 11.6849 -29.7577 main 1373 1373 P_____________ AL131995 11.6849 -29.7577 TS 37 1002 0 15 278
1995241N11333 1995 57 NA NA LUIS 1995-08-29 06:00:00 TS 11.8000 -30.5000 40 1000 hurdat_atl main 1444 1444 O_____________ hurdat_atl AL131995 11.8000 -30.5000 TS 40 1000 0 15 282
1995241N11333 1995 57 NA NA LUIS 1995-08-29 09:00:00 TS 11.9774 -31.2225 main 1513 1513 P_____________ AL131995 11.9774 -31.2225 TS 40 1000 0 14 286
1995241N11333 1995 57 NA NA LUIS 1995-08-29 12:00:00 TS 12.2000 -31.9000 40 1000 hurdat_atl main 1582 1582 O_____________ hurdat_atl AL131995 12.2000 -31.9000 TS 40 1000 0 14 291
1995241N11333 1995 57 NA NA LUIS 1995-08-29 15:00:00 TS 12.4573 -32.5225 main 1640 1640 P_____________ AL131995 12.4573 -32.5225 TS 37 1001 0 13 293
1995241N11333 1995 57 NA NA LUIS 1995-08-29 18:00:00 TS 12.7000 -33.1000 35 1003 hurdat_atl main 1700 1700 O_____________ hurdat_atl AL131995 12.7000 -33.1000 TS 35 1003 0 12 291
1995241N11333 1995 57 NA NA LUIS 1995-08-29 21:00:00 TS 12.8723 -33.6576 main 1761 1761 P_____________ AL131995 12.8723 -33.6576 TS 35 1004 0 11 286
1995241N11333 1995 57 NA NA LUIS 1995-08-30 00:00:00 TS 13.0000 -34.2000 35 1005 hurdat_atl main 1813 1813 O_____________ hurdat_atl AL131995 13.0000 -34.2000 TS 35 1005 0 11 282
1995241N11333 1995 57 NA NA LUIS 1995-08-30 03:00:00 TS 13.1075 -34.7651 main 1875 1869 P_____________ AL131995 13.1075 -34.7651 TS 35 1005 0 11 281
1995241N11333 1995 57 NA NA LUIS 1995-08-30 06:00:00 TS 13.2000 -35.3000 35 1005 hurdat_atl main 1871 1865 O_____________ hurdat_atl AL131995 13.2000 -35.3000 TS 35 1005 0 10 281
1995241N11333 1995 57 NA NA LUIS 1995-08-30 09:00:00 TS 13.2924 -35.7726 main 1868 1862 P_____________ AL131995 13.2924 -35.7726 TS 35 1005 0 9 283
1995241N11333 1995 57 NA NA LUIS 1995-08-30 12:00:00 TS 13.4000 -36.2000 35 1005 hurdat_atl main 1868 1866 O_____________ hurdat_atl AL131995 13.4000 -36.2000 TS 35 1005 0 8 287
1995241N11333 1995 57 NA NA LUIS 1995-08-30 15:00:00 TS 13.5424 -36.6000 main 1871 1871 P_____________ AL131995 13.5424 -36.6000 TS 40 1003 0 8 291
1995241N11333 1995 57 NA NA LUIS 1995-08-30 18:00:00 TS 13.7000 -37.0000 45 1002 hurdat_atl main 1885 1860 O_____________ hurdat_atl AL131995 13.7000 -37.0000 TS 45 1002 0 9 291
1995241N11333 1995 57 NA NA LUIS 1995-08-30 21:00:00 TS 13.8500 -37.4425 main 1860 1828 P_____________ AL131995 13.8500 -37.4425 TS 50 1000 0 9 289
1995241N11333 1995 57 NA NA LUIS 1995-08-31 00:00:00 TS 14.0000 -37.9000 55 998 hurdat_atl main 1828 1799 O_____________ hurdat_atl AL131995 14.0000 -37.9000 TS 55 998 0 9 289
1995241N11333 1995 57 NA NA LUIS 1995-08-31 03:00:00 TS 14.1499 -38.3501 main 1791 1770 P_____________ AL131995 14.1499 -38.3501 TS 65 995 1 9 289
1995241N11333 1995 57 NA NA LUIS 1995-08-31 06:00:00 TS 14.3000 -38.8000 75 992 hurdat_atl main 1770 1743 O_____________ hurdat_atl AL131995 14.3000 -38.8000 HU 75 992 1 9 289
1995241N11333 1995 57 NA NA LUIS 1995-08-31 09:00:00 TS 14.4424 -39.2426 main 1743 1716 P_____________ AL131995 14.4424 -39.2426 HU 77 985 1 9 289
1995241N11333 1995 57 NA NA LUIS 1995-08-31 12:00:00 TS 14.6000 -39.7000 80 979 hurdat_atl main 1716 1691 O_____________ hurdat_atl AL131995 14.6000 -39.7000 HU 80 979 1 10 291
1995241N11333 1995 57 NA NA LUIS 1995-08-31 15:00:00 TS 14.7924 -40.1925 main 1691 1668 P_____________ AL131995 14.7924 -40.1925 HU 85 975 2 10 292
1995241N11333 1995 57 NA NA LUIS 1995-08-31 18:00:00 TS 15.0000 -40.7000 90 971 hurdat_atl main 1668 1646 O_____________ hurdat_atl AL131995 15.0000 -40.7000 HU 90 971 2 11 293
1995241N11333 1995 57 NA NA LUIS 1995-08-31 21:00:00 TS 15.1999 -41.2076 main 1647 1626 P_____________ AL131995 15.1999 -41.2076 HU 95 968 2 10 293
1995241N11333 1995 57 NA NA LUIS 1995-09-01 00:00:00 TS 15.4000 -41.7000 100 965 hurdat_atl main 1627 1615 O_____________ hurdat_atl AL131995 15.4000 -41.7000 HU 100 965 3 10 294
1995241N11333 1995 57 NA NA LUIS 1995-09-01 03:00:00 TS 15.5998 -42.1501 main 1610 1599 P_____________ AL131995 15.5998 -42.1501 HU 102 961 3 10 295
1995241N11333 1995 57 NA NA LUIS 1995-09-01 06:00:00 TS 15.8000 -42.6000 105 958 hurdat_atl main 1601 1587 O_____________ hurdat_atl AL131995 15.8000 -42.6000 HU 105 958 3 10 294
1995241N11333 1995 57 NA NA LUIS 1995-09-01 09:00:00 TS 16.0074 -43.0850 main 1587 1572 P_____________ AL131995 16.0074 -43.0850 HU 110 954 3 10 293
1995241N11333 1995 57 NA NA LUIS 1995-09-01 12:00:00 TS 16.2000 -43.6000 115 950 hurdat_atl main 1575 1551 O_____________ hurdat_atl AL131995 16.2000 -43.6000 HU 115 950 4 11 289
1995241N11333 1995 57 NA NA LUIS 1995-09-01 15:00:00 TS 16.3574 -44.1426 main 1559 1531 P_____________ AL131995 16.3574 -44.1426 HU 115 949 4 11 286
1995241N11333 1995 57 NA NA LUIS 1995-09-01 18:00:00 TS 16.5000 -44.7000 115 948 hurdat_atl main 1531 1510 O_____________ hurdat_atl AL131995 16.5000 -44.7000 HU 115 948 4 11 286
1995241N11333 1995 57 NA NA LUIS 1995-09-01 21:00:00 TS 16.6574 -45.2500 main 1514 1495 P_____________ AL131995 16.6574 -45.2500 HU 115 948 4 11 286
1995241N11333 1995 57 NA NA LUIS 1995-09-02 00:00:00 TS 16.8000 -45.8000 115 948 hurdat_atl main 1495 1479 O_____________ hurdat_atl AL131995 16.8000 -45.8000 HU 115 948 4 11 283
1995241N11333 1995 57 NA NA LUIS 1995-09-02 03:00:00 TS 16.9074 -46.3501 main 1474 1459 P_____________ AL131995 16.9074 -46.3501 HU 115 948 4 11 281
1995241N11333 1995 57 NA NA LUIS 1995-09-02 06:00:00 TS 17.0000 -46.9000 115 948 hurdat_atl main 1459 1446 O_____________ hurdat_atl AL131995 17.0000 -46.9000 HU 115 948 4 11 281
1995241N11333 1995 57 NA NA LUIS 1995-09-02 09:00:00 TS 17.1073 -47.4425 main 1446 1431 P_____________ AL131995 17.1073 -47.4425 HU 117 948 4 11 281
1995241N11333 1995 57 NA NA LUIS 1995-09-02 12:00:00 TS 17.2000 -48.0000 120 948 hurdat_atl main 1431 1414 O_____________ hurdat_atl AL131995 17.2000 -48.0000 HU 120 948 4 11 278
1995241N11333 1995 57 NA NA LUIS 1995-09-02 15:00:00 TS 17.2648 -48.5850 main 1414 1387 P_____________ AL131995 17.2648 -48.5850 HU 120 948 4 12 275
1995241N11333 1995 57 NA NA LUIS 1995-09-02 18:00:00 TS 17.3000 -49.2000 120 948 hurdat_atl main 1387 1363 O_____________ hurdat_atl AL131995 17.3000 -49.2000 HU 120 948 4 12 272
1995241N11333 1995 57 NA NA LUIS 1995-09-02 21:00:00 TS 17.2999 -49.8427 main 1363 1338 P_____________ AL131995 17.2999 -49.8427 HU 120 948 4 12 270
1995241N11333 1995 57 NA NA LUIS 1995-09-03 00:00:00 TS 17.3000 -50.5000 120 948 hurdat_atl main 1338 1304 O_____________ hurdat_atl AL131995 17.3000 -50.5000 HU 120 948 4 13 273
1995241N11333 1995 57 NA NA LUIS 1995-09-03 03:00:00 TS 17.3573 -51.1498 main 1304 1243 P_____________ AL131995 17.3573 -51.1498 HU 120 948 4 12 275
1995241N11333 1995 57 NA NA LUIS 1995-09-03 06:00:00 TS 17.4000 -51.8000 120 948 hurdat_atl main 1243 1192 O_____________ hurdat_atl AL131995 17.4000 -51.8000 HU 120 948 4 12 270
1995241N11333 1995 57 NA NA LUIS 1995-09-03 09:00:00 TS 17.3574 -52.4577 main 1184 1127 P_____________ AL131995 17.3574 -52.4577 HU 120 948 4 12 265
1995241N11333 1995 57 NA NA LUIS 1995-09-03 12:00:00 TS 17.3000 -53.1000 120 948 hurdat_atl main 1127 1079 O_____________ hurdat_atl AL131995 17.3000 -53.1000 HU 120 948 4 12 268
1995241N11333 1995 57 NA NA LUIS 1995-09-03 15:00:00 TS 17.3072 -53.6998 main 1079 1033 P_____________ AL131995 17.3072 -53.6998 HU 122 946 4 11 270
1995241N11333 1995 57 NA NA LUIS 1995-09-03 18:00:00 TS 17.3000 -54.3000 125 945 hurdat_atl main 1033 981 O_____________ hurdat_atl AL131995 17.3000 -54.3000 HU 125 945 4 12 265
1995241N11333 1995 57 NA NA LUIS 1995-09-03 21:00:00 TS 17.2074 -54.9502 main 974 923 P_____________ AL131995 17.2074 -54.9502 HU 125 943 4 13 261
1995241N11333 1995 57 NA NA LUIS 1995-09-04 00:00:00 TS 17.1000 -55.6000 125 942 hurdat_atl main 923 875 O_____________ hurdat_atl AL131995 17.1000 -55.6000 HU 125 942 4 12 262
1995241N11333 1995 57 NA NA LUIS 1995-09-04 03:00:00 TS 17.0348 -56.2075 main 875 838 P_____________ AL131995 17.0348 -56.2075 HU 127 941 4 12 265
1995241N11333 1995 57 NA NA LUIS 1995-09-04 06:00:00 TS 17.0000 -56.8000 130 940 hurdat_atl main 838 805 O_____________ hurdat_atl AL131995 17.0000 -56.8000 HU 130 940 4 11 268
1995241N11333 1995 57 NA NA LUIS 1995-09-04 09:00:00 TS 16.9924 -57.4074 main 805 776 P_____________ AL131995 16.9924 -57.4074 HU 130 942 4 11 270
1995241N11333 1995 57 NA NA LUIS 1995-09-04 12:00:00 TS 17.0000 -58.0000 130 945 hurdat_atl main 776 755 O_____________ hurdat_atl AL131995 17.0000 -58.0000 HU 130 945 4 11 270
1995241N11333 1995 57 NA NA LUIS 1995-09-04 15:00:00 TS 16.9923 -58.5651 main 751 701 P_____________ AL131995 16.9923 -58.5651 HU 127 944 4 11 270
1995241N11333 1995 57 NA NA LUIS 1995-09-04 18:00:00 TS 17.0000 -59.1000 125 943 hurdat_atl main 701 650 O_____________ hurdat_atl AL131995 17.0000 -59.1000 HU 125 943 4 10 272
1995241N11333 1995 57 NA NA LUIS 1995-09-04 21:00:00 TS 17.0349 -59.6150 main 650 595 P_____________ AL131995 17.0349 -59.6150 HU 125 941 4 10 276
1995241N11333 1995 57 NA NA LUIS 1995-09-05 00:00:00 TS 17.1000 -60.1000 125 940 hurdat_atl main 595 551 O_____________ hurdat_atl AL131995 17.1000 -60.1000 HU 125 940 4 9 280
1995241N11333 1995 57 NA NA LUIS 1995-09-05 03:00:00 TS 17.1924 -60.5725 main 541 497 P_____________ AL131995 17.1924 -60.5725 HU 122 939 4 9 283
1995241N11333 1995 57 NA CS LUIS 1995-09-05 06:00:00 TS 17.3000 -61.0000 120 939 hurdat_atl main 497 464 O_____________ hurdat_atl AL131995 17.3000 -61.0000 HU 120 939 4 8 284
1995241N11333 1995 57 NA CS LUIS 1995-09-05 09:00:00 TS 17.3774 -61.3652 main 453 420 P_____________ AL131995 17.3774 -61.3652 HU 117 942 4 7 287
1995241N11333 1995 57 NA CS LUIS 1995-09-05 12:00:00 TS 17.5000 -61.7000 115 945 hurdat_atl main 420 384 O_____________ hurdat_atl AL131995 17.5000 -61.7000 HU 115 945 4 8 298
1995241N11333 1995 57 NA CS LUIS 1995-09-05 15:00:00 TS 17.7350 -62.0574 main 374 338 P_____________ AL131995 17.7350 -62.0574 HU 115 944 4 8 307
1995241N11333 1995 57 NA CS LUIS 1995-09-05 18:00:00 TS 18.0000 -62.4000 115 944 hurdat_atl main 338 306 O_____________ hurdat_atl AL131995 18.0000 -62.4000 HU 115 944 4 8 307
1995241N11333 1995 57 NA CS LUIS 1995-09-05 21:00:00 TS 18.1999 -62.7077 main 306 274 P_____________ AL131995 18.1999 -62.7077 HU 115 943 4 7 305
1995241N11333 1995 57 NA CS LUIS 1995-09-06 00:00:00 TS 18.4000 -63.0000 115 942 hurdat_atl main 274 243 O_____________ hurdat_atl AL131995 18.4000 -63.0000 HU 115 942 4 7 308
1995241N11333 1995 57 NA CS LUIS 1995-09-06 03:00:00 TS 18.6425 -63.3000 main 243 218 P_____________ AL131995 18.6425 -63.3000 HU 117 940 4 8 311
1995241N11333 1995 57 NA CS LUIS 1995-09-06 06:00:00 TS 18.9000 -63.6000 120 939 hurdat_atl main 218 195 O_____________ hurdat_atl AL131995 18.9000 -63.6000 HU 120 939 4 7 311
1995241N11333 1995 57 NA NA LUIS 1995-09-06 09:00:00 TS 19.1349 -63.8927 main 195 184 P_____________ AL131995 19.1349 -63.8927 HU 120 941 4 8 311
1995241N11333 1995 57 NA NA LUIS 1995-09-06 12:00:00 TS 19.4000 -64.2000 120 943 hurdat_atl main 184 176 O_____________ hurdat_atl AL131995 19.4000 -64.2000 HU 120 943 4 9 314
1995241N11333 1995 57 NA NA LUIS 1995-09-06 15:00:00 TS 19.7426 -64.5574 main 179 179 P_____________ AL131995 19.7426 -64.5574 HU 122 941 4 10 317
1995241N11333 1995 57 NA NA LUIS 1995-09-06 18:00:00 TS 20.1000 -64.9000 125 940 hurdat_atl main 203 203 O_____________ hurdat_atl AL131995 20.1000 -64.9000 HU 125 940 4 9 320
1995241N11333 1995 57 NA NA LUIS 1995-09-06 21:00:00 TS 20.4074 -65.1578 main 227 227 P_____________ AL131995 20.4074 -65.1578 HU 125 939 4 8 322
1995241N11333 1995 57 NA NA LUIS 1995-09-07 00:00:00 TS 20.7000 -65.4000 125 938 hurdat_atl main 258 258 O_____________ hurdat_atl AL131995 20.7000 -65.4000 HU 125 938 4 8 319
1995241N11333 1995 57 NA NA LUIS 1995-09-07 03:00:00 TS 20.9925 -65.6926 main 290 290 P_____________ AL131995 20.9925 -65.6926 HU 122 937 4 8 317
1995241N11333 1995 57 NA NA LUIS 1995-09-07 06:00:00 TS 21.3000 -66.0000 120 936 hurdat_atl main 324 324 O_____________ hurdat_atl AL131995 21.3000 -66.0000 HU 120 936 4 9 319
1995241N11333 1995 57 NA NA LUIS 1995-09-07 09:00:00 TS 21.6349 -66.3001 main 357 357 P_____________ AL131995 21.6349 -66.3001 HU 117 938 4 9 321
1995241N11333 1995 57 NA NA LUIS 1995-09-07 12:00:00 TS 22.0000 -66.6000 115 941 hurdat_atl main 402 402 O_____________ hurdat_atl AL131995 22.0000 -66.6000 HU 115 941 4 9 322
1995241N11333 1995 57 NA NA LUIS 1995-09-07 15:00:00 TS 22.3399 -66.8857 main 418 418 P_____________ AL131995 22.3399 -66.8857 HU 115 939 4 10 325
1995241N11333 1995 57 NA NA LUIS 1995-09-07 18:00:00 TS 22.8000 -67.2000 115 938 hurdat_atl main 447 447 O_____________ hurdat_atl AL131995 22.8000 -67.2000 HU 115 938 4 13 331
1995241N11333 1995 57 NA NA LUIS 1995-09-07 21:00:00 TS 23.4975 -67.5849 main 501 501 P_____________ AL131995 23.4975 -67.5849 HU 115 936 4 17 334
1995241N11333 1995 57 NA NA LUIS 1995-09-08 00:00:00 TS 24.3000 -68.0000 115 935 hurdat_atl main 564 564 O_____________ hurdat_atl AL131995 24.3000 -68.0000 HU 115 935 4 18 335
1995241N11333 1995 57 NA NA LUIS 1995-09-08 03:00:00 TS 25.1175 -68.4220 main 634 634 P_____________ AL131995 25.1175 -68.4220 HU 115 937 4 17 334
1995241N11333 1995 57 NA NA LUIS 1995-09-08 06:00:00 TS 25.8000 -68.8000 115 939 hurdat_atl main 668 668 O_____________ hurdat_atl AL131995 25.8000 -68.8000 HU 115 939 4 13 331
1995241N11333 1995 57 NA NA LUIS 1995-09-08 09:00:00 TS 26.2049 -69.0956 main 685 685 P_____________ AL131995 26.2049 -69.0956 HU 112 940 3 8 323
1995241N11333 1995 57 NA NA LUIS 1995-09-08 12:00:00 TS 26.4000 -69.3000 110 941 hurdat_atl main 692 686 O_____________ hurdat_atl AL131995 26.4000 -69.3000 HU 110 941 3 4 311
1995241N11333 1995 57 NA NA LUIS 1995-09-08 15:00:00 TS 26.4499 -69.4154 main 686 686 P_____________ AL131995 26.4499 -69.4154 HU 107 942 3 2 300
1995241N11333 1995 57 NA NA LUIS 1995-09-08 18:00:00 TS 26.5000 -69.5000 105 944 hurdat_atl main 690 685 O_____________ hurdat_atl AL131995 26.5000 -69.5000 HU 105 944 3 3 310
1995241N11333 1995 57 NA NA LUIS 1995-09-08 21:00:00 TS 26.6576 -69.6869 main 700 700 P_____________ AL131995 26.6576 -69.6869 HU 102 944 3 7 336
1995241N11333 1995 57 NA NA LUIS 1995-09-09 00:00:00 TS 27.1000 -69.8000 100 945 hurdat_atl main 734 734 O_____________ hurdat_atl AL131995 27.1000 -69.8000 HU 100 945 3 14 359
1995241N11333 1995 57 NA NA LUIS 1995-09-09 03:00:00 TS 28.0026 -69.7031 main 829 829 P_____________ AL131995 28.0026 -69.7031 HU 97 947 3 20 8
1995241N11333 1995 57 NA NA LUIS 1995-09-09 06:00:00 TS 29.1000 -69.5000 95 949 hurdat_atl main 907 853 O_____________ hurdat_atl AL131995 29.1000 -69.5000 HU 95 949 2 21 9
1995241N11333 1995 57 NA NA LUIS 1995-09-09 09:00:00 TS 30.0724 -69.3147 main 845 798 P_____________ AL131995 30.0724 -69.3147 HU 92 950 2 19 10
1995241N11333 1995 57 NA NA LUIS 1995-09-09 12:00:00 TS 31.0000 -69.1000 90 952 hurdat_atl main 798 753 O_____________ hurdat_atl AL131995 31.0000 -69.1000 HU 90 952 2 18 11
1995241N11333 1995 57 NA NA LUIS 1995-09-09 15:00:00 TS 31.8568 -68.9226 main 747 718 P_____________ AL131995 31.8568 -68.9226 HU 87 953 2 18 14
1995241N11333 1995 57 NA NA LUIS 1995-09-09 18:00:00 TS 32.7000 -68.6000 85 955 hurdat_atl main 720 715 O_____________ hurdat_atl AL131995 32.7000 -68.6000 HU 85 955 2 19 24
1995241N11333 1995 57 NA NA LUIS 1995-09-09 21:00:00 TS 33.5775 -67.9967 main 726 726 P_____________ AL131995 33.5775 -67.9967 HU 85 957 2 21 33
1995241N11333 1995 57 NA NA LUIS 1995-09-10 00:00:00 TS 34.5000 -67.2000 85 959 hurdat_atl main 766 764 O_____________ hurdat_atl AL131995 34.5000 -67.2000 HU 85 959 2 24 36
1995241N11333 1995 57 NA NA LUIS 1995-09-10 03:00:00 TS 35.4926 -66.3223 main 760 705 P_____________ AL131995 35.4926 -66.3223 HU 85 961 2 25 36
1995241N11333 1995 57 NA NA LUIS 1995-09-10 06:00:00 TS 36.5000 -65.4000 85 963 hurdat_atl main 700 658 O_____________ hurdat_atl AL131995 36.5000 -65.4000 HU 85 963 2 24 36
1995241N11333 1995 57 NA NA LUIS 1995-09-10 09:00:00 TS 37.4097 -64.6166 main 664 592 P_____________ AL131995 37.4097 -64.6166 HU 85 962 2 23 35
1995241N11333 1995 57 NA NA LUIS 1995-09-10 12:00:00 TS 38.4000 -63.7000 85 961 hurdat_atl main 582 501 O_____________ hurdat_atl AL131995 38.4000 -63.7000 HU 85 961 2 28 39
1995241N11333 1995 57 NA NA LUIS 1995-09-10 15:00:00 TS 39.5677 -62.4089 main 495 452 P_____________ AL131995 39.5677 -62.4089 HU 85 963 2 33 41
1995241N11333 1995 57 NA NA LUIS 1995-09-10 18:00:00 ET 40.9000 -60.9000 85 966 hurdat_atl main 447 349 O_____________ hurdat_atl AL131995 40.9000 -60.9000 EX 85 966 -4 36 40
1995241N11333 1995 57 NA NA LUIS 1995-09-10 21:00:00 ET 42.3459 -59.3462 main 353 286 P_____________ AL131995 42.3459 -59.3462 EX 90 965 -4 38 38
1995241N11333 1995 57 NA NA LUIS 1995-09-11 00:00:00 ET 43.9000 -57.7000 95 965 hurdat_atl main 282 171 O_____________ hurdat_atl AL131995 43.9000 -57.7000 EX 95 965 -4 38 38
1995241N11333 1995 57 NA NA LUIS 1995-09-11 03:00:00 ET 45.3859 -56.1019 main 158 15 P_____________ AL131995 45.3859 -56.1019 EX 100 964 -4 40 38
1995241N11333 1995 57 NA NA LUIS 1995-09-11 06:00:00 ET 47.1000 -54.2000 105 963 hurdat_atl main 13 0 O_____________ hurdat_atl AL131995 47.1000 -54.2000 EX 105 963 -4 51 40
1995241N11333 1995 57 NA NA LUIS 1995-09-11 09:00:00 ET 49.2954 -51.3233 main 152 152 P_____________ AL131995 49.2954 -51.3233 EX 97 961 -4 57 40
1995241N11333 1995 57 NA NA LUIS 1995-09-11 12:00:00 ET 51.5000 -48.5000 90 960 hurdat_atl main 428 428 O_____________ hurdat_atl AL131995 51.5000 -48.5000 EX 90 960 -4 50 34
1995241N11333 1995 57 NA NA LUIS 1995-09-11 15:00:00 ET 53.4175 -46.8695 main 587 569 P_____________ AL131995 53.4175 -46.8695 EX 82 959 -4 38 23
1995241N11333 1995 57 NA NA LUIS 1995-09-11 18:00:00 ET 55.0000 -46.0000 75 958 hurdat_atl main 558 433 O_____________ hurdat_atl AL131995 55.0000 -46.0000 EX 75 958 -4 29 17
1995241N11333 1995 57 NA NA LUIS 1995-09-11 21:00:00 ET 56.1845 -45.3706 main 422 332 P_____________ AL131995 56.1845 -45.3706 EX 67 956 -4 21 16
1995241N11333 1995 57 NA NA LUIS 1995-09-12 00:00:00 ET 57.0000 -45.0000 60 955 hurdat_atl main 332 276 O_____________ hurdat_atl AL131995 57.0000 -45.0000 EX 60 955 -4 15 17
1995241N11333 1995 57 NA NA LUIS 1995-09-12 03:00:00 ET 57.5736 -44.5676 main 265 223 P_____________ AL131995 57.5736 -44.5676 EX 60 952 -4 11 28
1995241N11333 1995 57 NA NA LUIS 1995-09-12 06:00:00 ET 58.0000 -44.0000 60 950 hurdat_atl main 224 177 O_____________ hurdat_atl AL131995 58.0000 -44.0000 EX 60 950 -4 12 40
1995241N11333 1995 57 NA NA LUIS 1995-09-12 09:00:00 ET 58.5007 -43.0753 main 177 134 P_____________ AL131995 58.5007 -43.0753 EX 60 952 -4 14 46
1995241N11333 1995 57 NA NA LUIS 1995-09-12 12:00:00 ET 59.0000 -42.0000 60 955 hurdat_atl main 136 125 O_____________ hurdat_atl AL131995 59.0000 -42.0000 EX 60 955 -4 15 47
1995241N11333 1995 57 NA NA LUIS 1995-09-12 15:00:00 ET 59.5006 -40.9792 main 134 134 P_____________ AL131995 59.5006 -40.9792 EX 55 957 -4 14 45
1995241N11333 1995 57 NA NA LUIS 1995-09-12 18:00:00 ET 60.0000 -40.0000 50 960 hurdat_atl main 168 O_____________ hurdat_atl AL131995 60.0000 -40.0000 EX 50 960 -4 14 44

IBTrACS Databaseについて

本データベースは、米国NOAAが公開する1842年以降の世界の熱帯低気圧のベストトラックデータアーカイブInternational Best Track Archive for Climate Stewardship (IBTrACS)を、ウェブで閲覧しやすい形式に変換したものです。

最終更新日:2021-12-06